createdAt,value
2022-09-14T00:02:14.372Z,4.50
2022-09-14T00:05:01.458Z,4.10
2022-09-14T00:07:48.459Z,4.53
2022-09-14T00:10:42.052Z,3.57
2022-09-14T00:13:28.986Z,7.20
2022-09-14T00:16:22.125Z,3.13
2022-09-14T00:19:17.850Z,3.97
2022-09-14T00:22:06.763Z,3.80
2022-09-14T00:24:53.699Z,3.77
2022-09-14T00:27:40.646Z,4.47
2022-09-14T00:30:28.190Z,4.07
2022-09-14T00:33:15.136Z,4.37
2022-09-14T00:36:11.202Z,4.63
2022-09-14T00:38:58.425Z,4.83
2022-09-14T00:41:47.767Z,4.00
2022-09-14T00:44:34.656Z,4.17
2022-09-14T00:47:21.788Z,4.00
2022-09-14T00:50:09.666Z,5.43
2022-09-14T00:52:56.883Z,4.13
2022-09-14T00:55:43.985Z,4.10
2022-09-14T00:58:31.012Z,4.60
2022-09-14T01:01:18.223Z,4.43
2022-09-14T01:04:05.227Z,4.10
2022-09-14T01:07:07.433Z,4.20
2022-09-14T01:10:06.334Z,3.97
2022-09-14T01:13:00.040Z,4.67
2022-09-14T01:16:07.905Z,4.60
2022-09-14T01:19:01.157Z,5.00
2022-09-14T01:21:50.575Z,4.63
2022-09-14T01:24:48.514Z,4.20
2022-09-14T01:27:41.743Z,4.27
2022-09-14T01:30:33.246Z,4.07
2022-09-14T01:33:33.957Z,4.73
2022-09-14T01:36:23.187Z,4.57
2022-09-14T01:39:11.366Z,4.40
2022-09-14T01:42:00.538Z,4.53
2022-09-14T01:44:52.065Z,5.00
2022-09-14T01:47:54.414Z,5.43
2022-09-14T01:50:47.364Z,6.17
2022-09-14T01:53:48.328Z,5.63
2022-09-14T01:56:42.259Z,6.17
2022-09-14T01:59:41.871Z,5.70
2022-09-14T02:02:55.485Z,5.97
2022-09-14T02:05:54.919Z,5.40
2022-09-14T02:08:42.230Z,6.00
2022-09-14T02:11:29.203Z,5.67
2022-09-14T02:14:16.306Z,5.53
2022-09-14T02:17:03.423Z,6.50
2022-09-14T02:19:56.542Z,6.43
2022-09-14T02:22:43.900Z,6.10
2022-09-14T02:25:31.085Z,5.70
2022-09-14T02:28:18.014Z,6.23
2022-09-14T02:31:21.897Z,5.13
2022-09-14T02:34:17.289Z,6.00
2022-09-14T02:37:13.583Z,5.53
2022-09-14T02:40:25.199Z,6.03
2022-09-14T02:43:27.413Z,5.90
2022-09-14T02:46:32.860Z,5.47
2022-09-14T02:49:50.646Z,5.97
2022-09-14T02:52:53.604Z,5.83
2022-09-14T02:55:46.700Z,5.77
2022-09-14T02:58:44.761Z,5.73
2022-09-14T03:01:31.799Z,5.87
2022-09-14T03:04:18.782Z,6.20
2022-09-14T03:07:05.762Z,5.70
2022-09-14T03:09:52.684Z,5.70
2022-09-14T03:12:39.655Z,6.40
2022-09-14T03:15:27.570Z,5.33
2022-09-14T03:18:14.770Z,6.43
2022-09-14T03:21:06.182Z,6.03
2022-09-14T03:23:55.136Z,6.97
2022-09-14T03:26:42.591Z,5.90
2022-09-14T03:29:29.632Z,6.90
2022-09-14T03:32:16.626Z,6.53
2022-09-14T03:35:04.070Z,5.77
2022-09-14T03:37:51.114Z,7.10
2022-09-14T03:40:39.089Z,6.37
2022-09-14T03:43:27.610Z,5.97
2022-09-14T03:46:17.065Z,6.80
2022-09-14T03:49:04.101Z,6.10
2022-09-14T03:51:51.277Z,6.10
2022-09-14T03:54:38.250Z,6.07
2022-09-14T03:57:25.310Z,6.17
2022-09-14T04:00:12.404Z,5.60
2022-09-14T04:03:00.231Z,6.03
2022-09-14T04:05:57.130Z,7.07
2022-09-14T04:08:45.918Z,6.70
2022-09-14T04:11:34.824Z,6.40
2022-09-14T04:14:23.366Z,5.93
2022-09-14T04:17:10.279Z,6.07
2022-09-14T04:19:57.227Z,6.27
2022-09-14T04:22:45.818Z,6.57
2022-09-14T04:25:32.731Z,6.60
2022-09-14T04:28:21.049Z,6.83
2022-09-14T04:31:09.680Z,7.00
2022-09-14T04:33:57.083Z,6.60
2022-09-14T04:36:44.270Z,6.30
2022-09-14T04:39:31.181Z,6.47
2022-09-14T04:42:18.124Z,6.73
2022-09-14T04:45:05.573Z,6.57
2022-09-14T04:47:53.620Z,5.73
2022-09-14T04:50:40.590Z,5.97
2022-09-14T04:53:30.111Z,6.40
2022-09-14T04:56:18.581Z,6.00
2022-09-14T04:59:05.997Z,5.93
2022-09-14T05:01:52.951Z,6.30
2022-09-14T05:04:40.004Z,6.77
2022-09-14T05:07:27.514Z,7.20
2022-09-14T05:10:14.565Z,6.40
2022-09-14T05:13:01.484Z,6.60
2022-09-14T05:15:48.455Z,6.33
2022-09-14T05:18:35.528Z,6.27
2022-09-14T05:21:23.605Z,7.47
2022-09-14T05:24:14.744Z,6.30
2022-09-14T05:27:02.415Z,6.57
2022-09-14T05:29:49.390Z,6.33
2022-09-14T05:32:36.456Z,6.47
2022-09-14T05:35:23.392Z,7.33
2022-09-14T05:38:10.320Z,6.97
2022-09-14T05:40:57.681Z,7.03
2022-09-14T05:43:45.005Z,7.60
2022-09-14T05:46:32.720Z,7.40
2022-09-14T05:49:19.685Z,7.23
2022-09-14T05:52:06.689Z,7.10
2022-09-14T05:54:53.604Z,6.93
2022-09-14T05:57:40.545Z,7.33
2022-09-14T06:00:27.764Z,6.70
2022-09-14T06:03:14.773Z,6.90
2022-09-14T06:06:02.460Z,6.70
2022-09-14T06:08:53.680Z,7.87
2022-09-14T06:11:40.597Z,7.87
2022-09-14T06:14:27.509Z,6.97
2022-09-14T06:17:14.431Z,7.03
2022-09-14T06:20:04.617Z,7.70
2022-09-14T06:22:51.939Z,7.20
2022-09-14T06:25:38.858Z,7.10
2022-09-14T06:28:27.797Z,6.30
2022-09-14T06:31:15.767Z,6.33
2022-09-14T06:34:03.902Z,7.47
2022-09-14T06:36:50.822Z,6.27
2022-09-14T06:39:38.049Z,6.80
2022-09-14T06:42:25.232Z,7.30
2022-09-14T06:45:12.404Z,7.20
2022-09-14T06:47:59.372Z,6.77
2022-09-14T06:50:46.284Z,7.33
2022-09-14T06:53:33.289Z,7.17
2022-09-14T06:56:20.791Z,7.37
2022-09-14T06:59:09.641Z,6.93
2022-09-14T07:01:56.645Z,7.67
2022-09-14T07:04:43.562Z,7.33
2022-09-14T07:07:30.888Z,7.63
2022-09-14T07:10:17.913Z,7.00
2022-09-14T07:13:04.870Z,8.30
2022-09-14T07:15:52.020Z,7.30
2022-09-14T07:18:40.030Z,7.97
2022-09-14T07:21:27.088Z,6.70
2022-09-14T07:24:15.021Z,6.80
2022-09-14T07:27:02.595Z,7.00
2022-09-14T07:29:49.486Z,7.17
2022-09-14T07:32:36.471Z,7.43
2022-09-14T07:35:23.999Z,7.60
2022-09-14T07:38:10.931Z,7.30
2022-09-14T07:40:58.505Z,7.27
2022-09-14T07:43:48.881Z,7.30
2022-09-14T07:46:41.265Z,7.97
2022-09-14T07:49:28.263Z,7.47
2022-09-14T07:52:15.190Z,7.40
2022-09-14T07:55:02.151Z,6.63
2022-09-14T07:57:56.397Z,7.83
2022-09-14T08:00:44.515Z,7.00
2022-09-14T08:03:31.597Z,7.57
2022-09-14T08:06:25.719Z,8.03
2022-09-14T08:09:12.644Z,7.13
2022-09-14T08:12:00.482Z,7.20
2022-09-14T08:14:47.337Z,7.37
2022-09-14T08:17:34.250Z,6.80
2022-09-14T08:20:21.236Z,7.70
2022-09-14T08:23:08.129Z,6.43
2022-09-14T08:25:55.040Z,7.23
2022-09-14T08:28:42.480Z,7.00
2022-09-14T08:31:29.609Z,6.40
2022-09-14T08:34:17.570Z,6.17
2022-09-14T08:37:04.534Z,5.43
2022-09-14T08:39:51.972Z,6.57
2022-09-14T08:42:39.028Z,7.00
2022-09-14T08:45:26.037Z,5.67
2022-09-14T08:48:23.873Z,5.87
2022-09-14T08:51:10.815Z,5.60
2022-09-14T08:53:59.451Z,5.03
2022-09-14T08:56:55.132Z,4.67
2022-09-14T08:59:51.752Z,4.20
2022-09-14T09:03:23.989Z,4.93
2022-09-14T09:06:17.670Z,5.10
2022-09-14T09:09:52.459Z,5.50
2022-09-14T09:12:45.292Z,4.87
2022-09-14T09:15:45.104Z,5.13
2022-09-14T09:18:48.885Z,4.80
2022-09-14T09:21:42.091Z,4.20
2022-09-14T09:24:45.691Z,3.87
2022-09-14T09:27:32.642Z,4.97
2022-09-14T09:30:19.606Z,4.47
2022-09-14T09:33:07.734Z,5.37
2022-09-14T09:36:13.445Z,6.37
2022-09-14T09:39:05.026Z,11.43
2022-09-14T09:42:00.608Z,18.10
2022-09-14T09:45:01.250Z,7.27
2022-09-14T09:47:50.546Z,4.73
2022-09-14T09:50:50.685Z,4.17
2022-09-14T09:53:47.006Z,4.47
2022-09-14T09:56:38.437Z,3.10
2022-09-14T09:59:30.233Z,3.53
2022-09-14T10:02:23.077Z,3.63
2022-09-14T10:05:09.989Z,3.70
2022-09-14T10:08:00.802Z,3.00
2022-09-14T10:10:47.803Z,3.97
2022-09-14T10:13:38.894Z,2.87
2022-09-14T10:16:33.189Z,2.13
2022-09-14T10:19:24.432Z,3.47
2022-09-14T10:22:31.297Z,3.13
2022-09-14T10:25:18.154Z,3.27
2022-09-14T10:28:05.305Z,2.90
2022-09-14T10:31:01.775Z,2.90
2022-09-14T10:33:54.645Z,2.70
2022-09-14T10:36:51.769Z,3.20
2022-09-14T10:39:50.633Z,2.70
2022-09-14T10:42:44.494Z,2.40
2022-09-14T10:45:52.834Z,2.37
2022-09-14T10:48:51.742Z,2.60
2022-09-14T10:52:06.750Z,2.60
2022-09-14T10:55:31.807Z,2.23
2022-09-14T10:58:35.248Z,2.30
2022-09-14T11:01:56.565Z,2.43
2022-09-14T11:05:11.695Z,4.17
2022-09-14T11:08:20.495Z,2.23
2022-09-14T11:11:22.849Z,2.03
2022-09-14T11:14:40.007Z,2.50
2022-09-14T11:17:36.084Z,2.10
2022-09-14T11:20:42.462Z,2.03
2022-09-14T11:23:56.313Z,2.40
2022-09-14T11:26:56.068Z,2.43
2022-09-14T11:29:57.113Z,3.13
2022-09-14T11:32:53.602Z,2.83
2022-09-14T11:36:06.528Z,2.33
2022-09-14T11:39:03.440Z,1.87
2022-09-14T11:42:18.361Z,2.30
2022-09-14T11:45:18.431Z,2.00
2022-09-14T11:48:44.129Z,2.00
2022-09-14T11:51:29.635Z,2.57
2022-09-14T11:54:21.774Z,2.20
2022-09-14T11:57:18.311Z,2.30
2022-09-14T12:00:30.457Z,2.57
2022-09-14T12:03:22.416Z,1.90
2022-09-14T12:06:35.658Z,2.43
2022-09-14T12:09:24.052Z,2.50
2022-09-14T12:12:32.477Z,2.10
2022-09-14T12:15:22.738Z,2.80
2022-09-14T12:18:09.983Z,2.53
2022-09-14T12:21:07.951Z,2.53
2022-09-14T12:23:57.797Z,2.50
2022-09-14T12:26:45.806Z,4.90
2022-09-14T12:29:34.311Z,1.70
2022-09-14T12:32:39.363Z,3.27
2022-09-14T12:35:38.739Z,2.57
2022-09-14T12:38:55.184Z,1.90
2022-09-14T12:41:42.009Z,1.90
2022-09-14T12:44:34.653Z,2.50
2022-09-14T12:47:24.370Z,1.93
2022-09-14T12:50:17.355Z,3.20
2022-09-14T12:53:23.550Z,2.67
2022-09-14T12:56:28.008Z,2.07
2022-09-14T12:59:39.695Z,1.80
2022-09-14T13:02:44.303Z,5.27
2022-09-14T13:05:34.220Z,1.63
2022-09-14T13:08:24.347Z,3.93
2022-09-14T13:11:20.197Z,1.70
2022-09-14T13:14:18.872Z,1.77
2022-09-14T13:17:13.490Z,3.10
2022-09-14T13:20:04.817Z,1.70
2022-09-14T13:22:51.838Z,1.77
2022-09-14T13:25:39.136Z,2.73
2022-09-14T13:28:30.185Z,2.67
2022-09-14T13:31:23.406Z,2.27
2022-09-14T13:34:24.500Z,1.80
2022-09-14T13:37:15.004Z,2.30
2022-09-14T13:40:02.186Z,2.90
2022-09-14T13:42:49.561Z,3.40
2022-09-14T13:45:37.035Z,1.97
2022-09-14T13:48:24.495Z,2.80
2022-09-14T13:51:14.484Z,3.37
2022-09-14T13:54:28.323Z,1.83
2022-09-14T13:57:20.518Z,1.80
2022-09-14T14:00:21.274Z,2.33
2022-09-14T14:03:27.935Z,1.73
2022-09-14T14:06:28.680Z,4.30
2022-09-14T14:09:16.181Z,2.13
2022-09-14T14:12:03.147Z,3.07
2022-09-14T14:15:06.165Z,1.67
2022-09-14T14:17:54.437Z,1.90
2022-09-14T14:20:41.551Z,4.20
2022-09-14T14:23:28.703Z,4.00
2022-09-14T14:26:21.468Z,2.83
2022-09-14T14:29:09.868Z,2.50
2022-09-14T14:31:57.099Z,2.00
2022-09-14T14:34:44.099Z,2.17
2022-09-14T14:37:31.201Z,2.13
2022-09-14T14:40:19.071Z,2.20
2022-09-14T14:43:07.669Z,1.80
2022-09-14T14:46:01.708Z,2.97
2022-09-14T14:48:48.762Z,1.57
2022-09-14T14:51:35.678Z,2.80
2022-09-14T14:54:22.607Z,2.80
2022-09-14T14:57:10.167Z,2.30
2022-09-14T14:59:57.452Z,2.50
2022-09-14T15:02:44.866Z,2.40
2022-09-14T15:05:32.275Z,2.20
2022-09-14T15:08:20.073Z,2.00
2022-09-14T15:11:16.484Z,2.20
2022-09-14T15:14:03.447Z,2.20
2022-09-14T15:16:50.669Z,2.03
2022-09-14T15:19:37.631Z,2.57
2022-09-14T15:22:25.162Z,1.87
2022-09-14T15:25:13.944Z,2.57
2022-09-14T15:28:00.934Z,2.40
2022-09-14T15:30:47.833Z,2.90
2022-09-14T15:33:34.838Z,5.07
2022-09-14T15:36:47.637Z,2.20
2022-09-14T15:39:34.554Z,1.93
2022-09-14T15:42:27.093Z,1.60
2022-09-14T15:45:14.500Z,2.87
2022-09-14T15:48:01.845Z,2.30
2022-09-14T15:50:48.771Z,2.13
2022-09-14T15:53:37.582Z,3.13
2022-09-14T15:56:24.499Z,2.20
2022-09-14T15:59:11.517Z,2.90
2022-09-14T16:01:58.603Z,2.37
2022-09-14T16:04:45.989Z,1.80
2022-09-14T16:07:32.922Z,3.00
2022-09-14T16:10:19.863Z,1.63
2022-09-14T16:13:06.756Z,2.40
2022-09-14T16:16:11.484Z,1.27
2022-09-14T16:18:58.649Z,1.60
2022-09-14T16:21:46.925Z,1.27
2022-09-14T16:24:35.401Z,1.60
2022-09-14T16:27:22.420Z,1.20
2022-09-14T16:30:09.914Z,1.90
2022-09-14T16:32:56.884Z,1.73
2022-09-14T16:35:43.802Z,1.10
2022-09-14T16:38:30.933Z,1.43
2022-09-14T16:41:18.443Z,3.20
2022-09-14T16:44:06.474Z,1.27
2022-09-14T16:46:55.411Z,1.23
2022-09-14T16:49:42.308Z,0.87
2022-09-14T16:52:29.731Z,1.07
2022-09-14T16:55:16.691Z,1.20
2022-09-14T16:58:03.617Z,1.30
2022-09-14T17:00:50.654Z,1.00
2022-09-14T17:03:38.226Z,2.20
2022-09-14T17:06:28.559Z,2.10
2022-09-14T17:09:34.984Z,1.13
2022-09-14T17:12:21.895Z,1.70
2022-09-14T17:15:09.628Z,2.67
2022-09-14T17:17:56.712Z,2.17
2022-09-14T17:21:01.041Z,0.90
2022-09-14T17:23:49.067Z,5.70
2022-09-14T17:26:36.405Z,1.80
2022-09-14T17:29:23.445Z,0.80
2022-09-14T17:32:14.813Z,2.07
2022-09-14T17:35:02.761Z,1.47
2022-09-14T17:37:50.263Z,2.33
2022-09-14T17:40:37.195Z,1.67
2022-09-14T17:43:24.162Z,2.63
2022-09-14T17:46:13.556Z,2.03
2022-09-14T17:49:04.161Z,1.67
2022-09-14T17:51:51.798Z,1.10
2022-09-14T17:54:38.730Z,1.90
2022-09-14T17:57:26.662Z,1.00
2022-09-14T18:00:14.713Z,1.20
2022-09-14T18:03:01.634Z,1.77
2022-09-14T18:05:54.218Z,2.43
2022-09-14T18:08:41.578Z,1.83
2022-09-14T18:11:29.169Z,2.80
2022-09-14T18:14:16.515Z,1.00
2022-09-14T18:17:03.907Z,1.13
2022-09-14T18:19:54.271Z,1.40
2022-09-14T18:22:41.472Z,2.33
2022-09-14T18:25:29.020Z,1.33
2022-09-14T18:28:16.103Z,2.53
2022-09-14T18:31:07.482Z,5.63
2022-09-14T18:33:59.303Z,1.63
2022-09-14T18:36:46.823Z,1.60
2022-09-14T18:39:33.969Z,2.63
2022-09-14T18:42:21.056Z,1.30
2022-09-14T18:45:08.428Z,2.37
2022-09-14T18:47:55.958Z,1.77
2022-09-14T18:50:43.276Z,1.60
2022-09-14T18:53:30.408Z,1.33
2022-09-14T18:56:17.914Z,1.90
2022-09-14T18:59:10.464Z,1.40
2022-09-14T19:01:57.528Z,1.37
2022-09-14T19:04:44.678Z,2.83
2022-09-14T19:07:31.722Z,1.27
2022-09-14T19:10:18.705Z,1.10
2022-09-14T19:13:07.086Z,1.10
2022-09-14T19:15:54.123Z,1.63
2022-09-14T19:18:42.297Z,1.30
2022-09-14T19:21:31.210Z,1.00
2022-09-14T19:24:18.165Z,1.70
2022-09-14T19:27:05.123Z,1.00
2022-09-14T19:29:52.354Z,1.20
2022-09-14T19:32:39.738Z,1.13
2022-09-14T19:35:27.325Z,1.70
2022-09-14T19:38:14.274Z,1.03
2022-09-14T19:41:02.781Z,1.17
2022-09-14T19:43:50.121Z,2.13
2022-09-14T19:46:39.426Z,1.00
2022-09-14T19:49:26.885Z,0.90
2022-09-14T19:52:13.926Z,0.87
2022-09-14T19:55:00.845Z,1.10
2022-09-14T19:57:48.735Z,0.73
2022-09-14T20:00:36.361Z,1.73
2022-09-14T20:03:23.494Z,0.97
2022-09-14T20:06:19.527Z,1.07
2022-09-14T20:09:09.904Z,0.80
2022-09-14T20:11:56.882Z,1.17
2022-09-14T20:14:44.212Z,0.97
2022-09-14T20:17:31.184Z,0.93
2022-09-14T20:20:18.094Z,1.43
2022-09-14T20:23:05.204Z,1.23
2022-09-14T20:25:52.642Z,1.23
2022-09-14T20:28:40.778Z,0.80
2022-09-14T20:31:30.386Z,1.30
2022-09-14T20:34:22.444Z,1.87
2022-09-14T20:37:09.382Z,1.20
2022-09-14T20:39:56.400Z,1.00
2022-09-14T20:42:43.387Z,1.00
2022-09-14T20:45:31.320Z,1.17
2022-09-14T20:48:18.415Z,0.80
2022-09-14T20:51:05.482Z,1.10
2022-09-14T20:53:53.348Z,1.20
2022-09-14T20:56:41.158Z,1.20
2022-09-14T20:59:28.803Z,1.07
2022-09-14T21:02:15.833Z,1.20
2022-09-14T21:05:02.891Z,0.83
2022-09-14T21:07:56.174Z,1.53
2022-09-14T21:10:43.395Z,0.93
2022-09-14T21:13:30.387Z,1.10
2022-09-14T21:16:22.395Z,0.87
2022-09-14T21:19:20.312Z,0.90
2022-09-14T21:22:07.728Z,0.90
2022-09-14T21:24:54.642Z,0.90
2022-09-14T21:27:41.534Z,0.97
2022-09-14T21:30:28.501Z,1.10
2022-09-14T21:33:16.497Z,3.20
2022-09-14T21:36:07.880Z,1.60
2022-09-14T21:38:59.695Z,0.90
2022-09-14T21:41:46.801Z,2.93
2022-09-14T21:44:37.306Z,1.63
2022-09-14T21:47:24.239Z,1.00
2022-09-14T21:50:11.719Z,2.10
2022-09-14T21:52:58.620Z,1.30
2022-09-14T21:55:45.522Z,1.60
2022-09-14T21:58:32.879Z,2.60
2022-09-14T22:01:24.328Z,1.23
2022-09-14T22:04:19.769Z,2.23
2022-09-14T22:07:06.793Z,2.13
2022-09-14T22:09:53.712Z,1.23
2022-09-14T22:12:42.118Z,1.13
2022-09-14T22:15:29.381Z,3.27
2022-09-14T22:18:16.412Z,1.00
2022-09-14T22:21:04.362Z,1.37
2022-09-14T22:23:54.522Z,1.23
2022-09-14T22:26:43.289Z,1.53
2022-09-14T22:29:30.609Z,1.37
2022-09-14T22:32:20.659Z,1.37
2022-09-14T22:35:08.085Z,1.40
2022-09-14T22:37:55.416Z,1.60
2022-09-14T22:40:42.368Z,1.77
2022-09-14T22:43:30.388Z,2.00
2022-09-14T22:46:19.059Z,1.77
2022-09-14T22:49:06.035Z,1.73
2022-09-14T22:51:52.955Z,2.20
2022-09-14T22:54:40.034Z,3.13
2022-09-14T22:57:26.959Z,1.73
2022-09-14T23:00:14.276Z,3.10
2022-09-14T23:03:01.543Z,3.13
2022-09-14T23:05:55.534Z,2.93
2022-09-14T23:08:42.882Z,3.23
2022-09-14T23:11:30.747Z,1.60
2022-09-14T23:14:17.721Z,1.67
2022-09-14T23:17:04.828Z,1.90
2022-09-14T23:19:51.942Z,4.83
2022-09-14T23:22:38.879Z,1.63
2022-09-14T23:25:25.794Z,2.83
2022-09-14T23:28:12.762Z,1.87
2022-09-14T23:31:00.636Z,4.07
2022-09-14T23:33:55.446Z,1.57
2022-09-14T23:36:42.530Z,2.00
2022-09-14T23:39:29.954Z,3.37
2022-09-14T23:42:16.895Z,3.03
2022-09-14T23:45:05.135Z,1.67
2022-09-14T23:47:52.062Z,1.37
2022-09-14T23:50:39.544Z,1.60
2022-09-14T23:53:27.266Z,1.93
2022-09-14T23:56:15.161Z,1.40
2022-09-14T23:59:02.131Z,2.07
